Time;durP1;ratioP1;P1;durP2;ratioP2;P2;SDS_P1;SDS_P2;PMS_P1;PMS_P2;Temp;Humidity;BMP_temperature;BMP_pressure;BME280_temperature;BME280_humidity;BME280_pressure;Samples;Min_cycle;Max_cycle;Signal;HPM_P1;HPM_P2
2022/12/31 00:00:03;;;;;;;2.42;0.80;;;;;;;13.11;nan;100119.91;4966061;28;20041;-85
2022/12/31 00:02:28;;;;;;;1.88;0.93;;;;;;;13.11;nan;100119.91;4965676;28;20043;-85
2022/12/31 00:04:54;;;;;;;1.45;0.70;;;;;;;13.11;nan;100122.56;4964275;28;20117;-84
2022/12/31 00:07:19;;;;;;;1.52;0.80;;;;;;;13.11;nan;100127.88;4966486;28;20030;-85
2022/12/31 00:09:44;;;;;;;1.20;0.75;;;;;;;13.18;nan;100138.63;4963537;28;20042;-85
2022/12/31 00:12:09;;;;;;;1.00;0.77;;;;;;;13.19;nan;100129.63;4979766;28;20046;-85
2022/12/31 00:14:35;;;;;;;1.13;0.70;;;;;;;13.23;nan;100133.59;4963042;28;20386;-84
2022/12/31 00:17:00;;;;;;;1.08;0.70;;;;;;;13.26;nan;100130.56;4965816;28;20571;-84
2022/12/31 00:19:26;;;;;;;1.23;0.60;;;;;;;13.26;nan;100140.38;4966014;28;20084;-84
2022/12/31 00:21:51;;;;;;;2.75;0.80;;;;;;;13.24;nan;100137.06;4967168;28;20136;-85
2022/12/31 00:24:16;;;;;;;1.17;0.77;;;;;;;13.22;nan;100139.88;4969752;28;20038;-85
2022/12/31 00:26:41;;;;;;;1.10;0.60;;;;;;;13.16;nan;100149.41;4975188;28;20566;-84
2022/12/31 00:29:07;;;;;;;1.95;0.80;;;;;;;13.09;nan;100142.34;4976398;28;20069;-85
2022/12/31 00:31:35;;;;;;;1.58;0.88;;;;;;;13.06;nan;100159.44;4973707;28;20038;-84
2022/12/31 00:34:01;;;;;;;0.60;0.60;;;;;;;13.05;nan;100157.78;4979319;28;20113;-84
2022/12/31 00:36:29;;;;;;;1.10;0.80;;;;;;;13.01;nan;100150.34;4978503;28;20074;-84
2022/12/31 00:38:55;;;;;;;1.17;0.88;;;;;;;13.04;nan;100163.25;4977976;28;20074;-84
2022/12/31 00:41:22;;;;;;;1.02;0.70;;;;;;;13.00;nan;100160.13;4979028;28;20035;-84
2022/12/31 00:43:48;;;;;;;2.25;0.82;;;;;;;12.99;nan;100147.88;4977283;28;20134;-83
2022/12/31 00:46:15;;;;;;;1.45;0.80;;;;;;;12.97;nan;100157.84;4974359;28;20043;-84
2022/12/31 00:48:40;;;;;;;2.10;0.80;;;;;;;12.98;nan;100156.00;4975861;28;20034;-84
2022/12/31 00:51:07;;;;;;;1.30;0.90;;;;;;;12.99;nan;100161.16;4974943;28;20118;-84
2022/12/31 00:53:33;;;;;;;1.40;0.80;;;;;;;12.95;nan;100155.34;4975646;28;20035;-83
2022/12/31 00:56:01;;;;;;;2.72;0.80;;;;;;;12.94;nan;100164.34;4979114;28;20130;-84
2022/12/31 00:58:27;;;;;;;1.67;0.70;;;;;;;12.94;nan;100166.13;4980944;28;20596;-84
2022/12/31 01:00:52;;;;;;;1.15;0.75;;;;;;;12.93;nan;100173.28;4980778;28;20045;-84
2022/12/31 01:03:17;;;;;;;4.38;1.05;;;;;;;12.92;nan;100174.28;4979057;28;20035;-84
2022/12/31 01:05:43;;;;;;;1.98;0.90;;;;;;;12.94;nan;100177.59;4979474;28;20496;-84
2022/12/31 01:08:08;;;;;;;1.15;0.80;;;;;;;12.93;nan;100180.41;4979184;28;20037;-84
2022/12/31 01:13:17;;;;;;;1.45;0.90;;;;;;;12.94;nan;100188.22;4980726;28;20127;-84
2022/12/31 01:15:42;;;;;;;1.60;0.85;;;;;;;12.96;nan;100182.72;4979348;28;20035;-84
2022/12/31 01:18:08;;;;;;;1.65;0.80;;;;;;;12.96;nan;100198.63;4978274;28;20567;-84
2022/12/31 01:20:39;;;;;;;1.10;0.77;;;;;;;12.97;nan;100197.66;4979717;28;20033;-84
2022/12/31 01:23:05;;;;;;;1.35;0.80;;;;;;;13.03;nan;100201.41;4975827;28;20031;-85
2022/12/31 01:25:33;;;;;;;1.27;0.75;;;;;;;13.01;nan;100200.78;4974573;28;20045;-84
2022/12/31 01:27:58;;;;;;;1.10;0.73;;;;;;;13.05;nan;100197.59;4973701;28;20057;-85
2022/12/31 01:30:23;;;;;;;1.58;0.80;;;;;;;13.07;nan;100208.88;4973503;28;20513;-84
2022/12/31 01:32:49;;;;;;;1.48;0.90;;;;;;;13.08;nan;100210.50;4973655;28;20092;-84
2022/12/31 01:35:14;;;;;;;1.48;0.82;;;;;;;13.04;nan;100219.00;4976694;28;20242;-84
2022/12/31 01:37:39;;;;;;;2.28;0.80;;;;;;;13.07;nan;100218.66;4979738;28;20043;-85
2022/12/31 01:40:05;;;;;;;1.70;0.73;;;;;;;13.08;nan;100217.66;4981831;28;20131;-84
2022/12/31 01:42:30;;;;;;;1.80;0.70;;;;;;;13.13;nan;100209.97;4970290;28;20035;-85
2022/12/31 01:44:55;;;;;;;1.30;0.80;;;;;;;13.13;nan;100217.94;4973189;28;20133;-84
2022/12/31 01:47:31;;;;;;;1.33;0.80;;;;;;;13.12;nan;100226.91;4973457;28;20279;-84
2022/12/31 01:50:05;;;;;;;1.35;0.88;;;;;;;13.19;nan;100225.22;4972254;28;20039;-84
2022/12/31 01:52:37;;;;;;;1.85;0.82;;;;;;;13.21;nan;100235.66;4971398;28;20041;-85
2022/12/31 01:55:26;;;;;;;2.25;0.90;;;;;;;13.21;nan;100231.19;4970751;28;20041;-85
2022/12/31 01:57:57;;;;;;;1.27;0.80;;;;;;;13.25;nan;100231.63;4969267;28;20043;-85
2022/12/31 02:00:23;;;;;;;1.48;0.80;;;;;;;13.25;nan;100231.63;4970203;28;20039;-84
2022/12/31 02:02:48;;;;;;;1.80;0.88;;;;;;;13.27;nan;100226.97;4970818;28;20408;-84
2022/12/31 02:05:25;;;;;;;1.02;0.80;;;;;;;13.31;nan;100234.44;4971908;28;20052;-84
2022/12/31 02:07:52;;;;;;;1.33;0.80;;;;;;;13.30;nan;100238.13;4971858;28;20316;-85
2022/12/31 02:10:18;;;;;;;0.90;0.68;;;;;;;13.28;nan;100234.00;4971418;28;20039;-84
2022/12/31 02:12:43;;;;;;;1.20;0.80;;;;;;;13.29;nan;100236.44;4971239;28;20608;-84
2022/12/31 02:15:09;;;;;;;1.00;0.70;;;;;;;13.30;nan;100230.16;4972017;28;20046;-84
2022/12/31 02:18:30;;;;;;;1.20;0.90;;;;;;;13.32;nan;100232.63;4970444;28;20043;-84
2022/12/31 02:21:03;;;;;;;2.45;0.70;;;;;;;13.33;nan;100231.63;4977808;28;20031;-84
2022/12/31 02:24:00;;;;;;;1.20;0.65;;;;;;;13.40;nan;100229.09;4962081;28;20031;-85
2022/12/31 02:26:52;;;;;;;1.92;0.80;;;;;;;13.44;nan;100233.84;4975224;28;20035;-84
2022/12/31 02:29:36;;;;;;;0.95;0.70;;;;;;;13.46;nan;100229.19;4978968;28;20031;-85
2022/12/31 02:32:09;;;;;;;1.88;0.85;;;;;;;13.44;nan;100214.44;4976996;28;20501;-84
2022/12/31 02:34:40;;;;;;;1.95;0.88;;;;;;;13.41;nan;100222.78;4978848;28;20043;-84
2022/12/31 02:37:08;;;;;;;1.05;0.82;;;;;;;13.36;nan;100224.13;4978591;28;20050;-84
2022/12/31 02:39:35;;;;;;;1.42;0.70;;;;;;;13.41;nan;100228.09;4979364;28;20038;-85
2022/12/31 02:42:01;;;;;;;1.05;0.70;;;;;;;13.43;nan;100234.88;4979392;28;20046;-84
2022/12/31 02:44:34;;;;;;;1.48;0.80;;;;;;;13.49;nan;100235.97;4976490;28;20039;-85
2022/12/31 02:47:24;;;;;;;1.77;0.70;;;;;;;13.52;nan;100227.66;4976621;28;20089;-84
2022/12/31 02:50:26;;;;;;;1.60;0.70;;;;;;;13.59;nan;100234.75;4977971;28;20031;-84
2022/12/31 02:53:07;;;;;;;2.50;0.68;;;;;;;13.64;nan;100246.69;4970669;28;20555;-84
2022/12/31 02:55:56;;;;;;;1.38;0.90;;;;;;;13.70;nan;100262.69;4977954;28;20042;-83
2022/12/31 03:02:12;;;;;;;0.88;0.70;;;;;;;13.78;nan;100259.19;4977248;28;20906;-85
2022/12/31 03:06:48;;;;;;;1.00;0.77;;;;;;;13.81;nan;100256.16;4980507;28;20041;-84
2022/12/31 03:09:13;;;;;;;0.80;0.63;;;;;;;13.81;nan;100262.28;4979227;28;20039;-85
2022/12/31 03:14:24;;;;;;;1.92;0.70;;;;;;;13.91;nan;100264.69;4962669;28;20062;-84
2022/12/31 03:16:49;;;;;;;1.20;0.90;;;;;;;13.93;nan;100268.00;4976963;28;20046;-85
2022/12/31 03:27:26;;;;;;;;;;;;;;;13.95;nan;100258.00;4971144;28;20109;-84
2022/12/31 03:29:51;;;;;;;2.83;1.00;;;;;;;13.95;nan;100251.88;4969001;28;19914;-84
2022/12/31 03:32:16;;;;;;;2.92;0.98;;;;;;;13.99;nan;100255.81;4984846;28;20042;-84
2022/12/31 03:34:42;;;;;;;1.40;0.90;;;;;;;14.02;nan;100258.13;4972948;28;20038;-84
2022/12/31 03:37:07;;;;;;;;;;;;;;;14.03;nan;100257.09;4993209;28;20043;-85
2022/12/31 03:39:32;;;;;;;2.07;0.80;;;;;;;14.01;nan;100248.47;4977396;28;19918;-84
2022/12/31 03:41:57;;;;;;;;;;;;;;;14.02;nan;100253.63;4978421;28;20077;-84
2022/12/31 03:44:22;;;;;;;1.13;0.67;;;;;;;13.99;nan;100261.13;4978158;28;19914;-84
2022/12/31 03:46:48;;;;;;;4.83;1.00;;;;;;;14.01;nan;100256.47;4978143;28;20031;-84
2022/12/31 03:49:13;;;;;;;1.57;0.80;;;;;;;14.18;nan;100255.31;4976437;28;20475;-84
2022/12/31 03:51:38;;;;;;;2.30;0.90;;;;;;;14.24;nan;100238.59;4975872;28;20408;-85
2022/12/31 03:54:04;;;;;;;1.08;0.70;;;;;;;14.21;nan;100241.63;4977962;28;20045;-84
2022/12/31 03:56:29;;;;;;;1.83;0.90;;;;;;;14.26;nan;100240.28;4979113;28;20038;-84
2022/12/31 03:58:54;;;;;;;1.75;0.82;;;;;;;14.31;nan;100232.56;4978392;28;20050;-85
2022/12/31 04:01:23;;;;;;;2.05;0.70;;;;;;;14.32;nan;100228.88;4982343;28;20042;-85
2022/12/31 04:03:48;;;;;;;;;;;;;;;14.35;nan;100240.00;4984488;28;20070;-84
2022/12/31 04:06:13;;;;;;;;;;;;;;;14.34;nan;100234.84;4983470;28;20020;-86
2022/12/31 04:08:38;;;;;;;;;;;;;;;14.34;nan;100240.19;4983269;28;20068;-85
2022/12/31 04:11:03;;;;;;;1.70;0.80;;;;;;;14.33;nan;100246.50;4982481;28;19914;-85
2022/12/31 04:13:29;;;;;;;2.28;0.93;;;;;;;14.33;nan;100238.53;4982166;28;20031;-84
2022/12/31 04:15:54;;;;;;;;;;;;;;;14.34;nan;100242.84;4983266;28;20349;-85
2022/12/31 04:18:19;;;;;;;2.60;0.73;;;;;;;14.35;nan;100253.31;4976845;28;19914;-84
2022/12/31 04:20:45;;;;;;;1.35;0.80;;;;;;;14.33;nan;100247.34;4983803;28;20278;-85
2022/12/31 04:23:10;;;;;;;1.80;0.90;;;;;;;14.48;nan;100257.16;4978823;28;20415;-85
2022/12/31 04:25:35;;;;;;;1.63;0.80;;;;;;;14.58;nan;100255.88;4977220;28;20405;-84
2022/12/31 04:28:00;;;;;;;3.15;0.80;;;;;;;14.58;nan;100263.84;4978081;28;20081;-84
2022/12/31 04:30:26;;;;;;;1.40;0.70;;;;;;;14.60;nan;100277.81;4973819;28;20031;-85
2022/12/31 04:32:51;;;;;;;1.63;0.82;;;;;;;14.60;nan;100283.13;4972725;28;20086;-85
2022/12/31 04:35:16;;;;;;;1.63;0.80;;;;;;;14.59;nan;100284.16;4971529;28;20707;-85
2022/12/31 04:37:42;;;;;;;1.52;0.70;;;;;;;14.56;nan;100273.03;4971130;28;20039;-85
2022/12/31 04:40:07;;;;;;;3.13;1.33;;;;;;;14.52;nan;100280.53;4971150;28;20039;-86
2022/12/31 04:42:33;;;;;;;2.00;0.70;;;;;;;14.52;nan;100290.38;4972630;28;20038;-85
2022/12/31 04:44:59;;;;;;;2.00;1.00;;;;;;;14.44;nan;100277.97;4972846;28;20054;-85
2022/12/31 04:47:24;;;;;;;1.00;0.73;;;;;;;14.47;nan;100295.38;4971459;28;20069;-85
2022/12/31 04:49:49;;;;;;;1.40;0.68;;;;;;;14.51;nan;100286.03;4972342;28;20034;-86
2022/12/31 04:52:14;;;;;;;2.20;0.80;;;;;;;14.56;nan;100279.22;4970263;28;20118;-85
2022/12/31 04:54:40;;;;;;;2.92;1.10;;;;;;;14.57;nan;100288.84;4970806;28;20135;-85
2022/12/31 04:57:05;;;;;;;1.33;0.60;;;;;;;14.57;nan;100282.69;4970602;28;20492;-86
2022/12/31 04:59:30;;;;;;;;;;;;;;;14.58;nan;100281.66;4972954;28;20049;-85
2022/12/31 05:01:55;;;;;;;;;;;;;;;14.61;nan;100279.47;4971237;28;20269;-86
2022/12/31 05:04:21;;;;;;;1.00;0.70;;;;;;;14.60;nan;100277.81;4970968;28;20388;-85
2022/12/31 05:06:46;;;;;;;1.77;0.77;;;;;;;14.65;nan;100279.91;4971150;28;20122;-85
2022/12/31 05:09:11;;;;;;;1.67;0.70;;;;;;;14.63;nan;100277.47;4971209;28;20772;-85
2022/12/31 05:11:37;;;;;;;1.70;0.88;;;;;;;14.65;nan;100294.03;4969346;28;20108;-85
2022/12/31 05:14:02;;;;;;;2.83;0.88;;;;;;;14.70;nan;100290.00;4951039;28;20450;-87
2022/12/31 05:16:27;;;;;;;1.60;0.70;;;;;;;14.70;nan;100295.34;4955937;28;20042;-85
2022/12/31 05:18:52;;;;;;;1.10;0.70;;;;;;;14.70;nan;100313.97;4972406;28;20031;-84
2022/12/31 05:21:20;;;;;;;1.13;0.70;;;;;;;14.69;nan;100310.50;4972721;28;20094;-84
2022/12/31 05:23:46;;;;;;;2.42;0.80;;;;;;;14.71;nan;100316.47;4971734;28;20385;-85
2022/12/31 05:26:11;;;;;;;1.05;0.70;;;;;;;14.78;nan;100317.38;4971951;28;20404;-85
2022/12/31 05:28:36;;;;;;;1.53;0.73;;;;;;;14.89;nan;100293.94;4970113;28;20408;-85
2022/12/31 05:31:01;;;;;;;2.55;0.90;;;;;;;14.82;nan;100285.88;4973462;28;20061;-86
2022/12/31 05:33:27;;;;;;;0.50;0.40;;;;;;;14.79;nan;100280.94;4983868;28;20050;-85
2022/12/31 05:35:52;;;;;;;2.58;0.80;;;;;;;14.78;nan;100277.44;4995312;28;20023;-86
2022/12/31 05:38:17;;;;;;;1.13;0.65;;;;;;;14.81;nan;100292.22;4975860;28;20039;-86
2022/12/31 05:40:43;;;;;;;2.45;0.70;;;;;;;14.77;nan;100290.94;4971519;28;20081;-85
2022/12/31 05:43:08;;;;;;;2.17;0.70;;;;;;;14.81;nan;100293.03;4972170;28;20038;-86
2022/12/31 05:45:33;;;;;;;1.08;0.55;;;;;;;14.76;nan;100290.09;4972741;28;20122;-85
2022/12/31 05:47:59;;;;;;;1.20;0.73;;;;;;;14.79;nan;100303.03;4966699;28;20031;-85
2022/12/31 05:50:25;;;;;;;0.93;0.60;;;;;;;14.80;nan;100312.69;4967911;28;20035;-86
2022/12/31 05:52:50;;;;;;;2.15;0.70;;;;;;;14.88;nan;100302.97;4971723;28;20031;-86
2022/12/31 05:55:15;;;;;;;1.02;0.75;;;;;;;14.86;nan;100311.13;4973440;28;20045;-85
2022/12/31 05:57:40;;;;;;;1.52;0.75;;;;;;;14.90;nan;100309.75;4971349;28;20697;-85
2022/12/31 06:00:08;;;;;;;1.90;0.80;;;;;;;14.89;nan;100307.25;4970221;28;20074;-86
2022/12/31 06:02:33;;;;;;;2.25;0.70;;;;;;;14.88;nan;100309.09;4970818;28;20547;-85
2022/12/31 06:04:58;;;;;;;0.93;0.70;;;;;;;14.84;nan;100313.13;4969759;28;20034;-85
2022/12/31 06:07:23;;;;;;;;;;;;;;;14.83;nan;100322.16;4970306;28;20034;-85
2022/12/31 06:09:49;;;;;;;1.30;0.70;;;;;;;14.85;nan;100333.44;4971087;28;19914;-85
2022/12/31 06:12:14;;;;;;;;;;;;;;;14.80;nan;100334.00;4969836;28;20049;-85
2022/12/31 06:14:39;;;;;;;1.80;0.70;;;;;;;14.82;nan;100331.13;4969979;28;20387;-85
2022/12/31 06:17:04;;;;;;;;;;;;;;;14.76;nan;100338.03;4970079;28;20043;-85
2022/12/31 06:19:29;;;;;;;2.33;0.90;;;;;;;14.78;nan;100341.34;4969869;28;20375;-86
2022/12/31 06:21:55;;;;;;;1.20;0.67;;;;;;;14.81;nan;100334.81;4970098;28;20039;-85
2022/12/31 06:24:20;;;;;;;0.90;0.60;;;;;;;14.80;nan;100333.13;4968385;28;20280;-85
2022/12/31 06:26:46;;;;;;;1.25;0.57;;;;;;;14.78;nan;100330.69;4969883;28;20031;-85
2022/12/31 06:29:11;;;;;;;2.22;0.75;;;;;;;14.77;nan;100333.50;4969727;28;20092;-84
2022/12/31 06:31:36;;;;;;;1.17;0.70;;;;;;;14.76;nan;100337.19;4971076;28;20043;-84
2022/12/31 06:34:02;;;;;;;0.82;0.60;;;;;;;14.80;nan;100341.13;4971498;28;20114;-85
2022/12/31 06:36:27;;;;;;;1.00;0.80;;;;;;;14.83;nan;100340.78;4972153;28;20031;-85
2022/12/31 06:38:54;;;;;;;1.70;0.68;;;;;;;14.88;nan;100342.88;4970768;28;20692;-84
2022/12/31 06:41:20;;;;;;;2.05;0.73;;;;;;;14.89;nan;100347.19;4972531;28;20037;-85
2022/12/31 06:43:45;;;;;;;1.55;0.88;;;;;;;14.93;nan;100349.31;4971459;28;20035;-84
2022/12/31 06:46:15;;;;;;;1.50;0.60;;;;;;;14.89;nan;100344.53;4971119;28;20031;-84
2022/12/31 06:48:43;;;;;;;1.77;0.70;;;;;;;14.88;nan;100350.88;4963598;28;20046;-85
2022/12/31 06:51:17;;;;;;;1.83;0.70;;;;;;;14.89;nan;100352.53;4969735;28;20026;-84
2022/12/31 06:53:43;;;;;;;1.83;0.50;;;;;;;14.86;nan;100357.19;4967269;28;20045;-85
2022/12/31 06:56:17;;;;;;;1.27;0.75;;;;;;;14.91;nan;100353.97;4984652;28;20035;-85
2022/12/31 06:58:44;;;;;;;2.72;0.70;;;;;;;14.92;nan;100342.34;4970683;28;20052;-85
2022/12/31 07:01:44;;;;;;;1.73;0.70;;;;;;;14.86;nan;100338.56;4967488;28;20030;-85
2022/12/31 07:04:43;;;;;;;2.70;0.70;;;;;;;14.84;nan;100339.75;4963065;28;20449;-85
2022/12/31 07:07:40;;;;;;;2.30;0.70;;;;;;;14.82;nan;100347.09;4969138;28;20035;-85
2022/12/31 07:10:24;;;;;;;2.85;0.73;;;;;;;14.83;nan;100343.44;4969346;28;20054;-84
2022/12/31 07:13:09;;;;;;;;;;;;;;;14.87;nan;100350.03;4969972;28;20129;-85
2022/12/31 07:15:48;;;;;;;;;;;;;;;14.87;nan;100352.69;4983665;28;20001;-85
2022/12/31 07:18:21;;;;;;;;;;;;;;;14.88;nan;100353.53;4968883;28;19914;-85
2022/12/31 07:20:46;;;;;;;;;;;;;;;14.88;nan;100353.53;4969144;28;19918;-85
2022/12/31 07:23:12;;;;;;;2.30;0.80;;;;;;;14.88;nan;100362.34;4969802;28;19997;-85
2022/12/31 07:25:43;;;;;;;0.90;0.70;;;;;;;14.84;nan;100369.84;4968456;28;20043;-85
2022/12/31 07:28:36;;;;;;;1.75;0.70;;;;;;;14.89;nan;100374.63;4968484;28;20083;-85
2022/12/31 07:31:16;;;;;;;1.30;0.80;;;;;;;14.86;nan;100380.34;4967268;28;20417;-85
2022/12/31 07:33:48;;;;;;;1.60;0.80;;;;;;;14.83;nan;100378.06;4966577;28;20037;-85
2022/12/31 07:36:41;;;;;;;1.60;0.77;;;;;;;14.75;nan;100373.63;4972016;28;20027;-85
2022/12/31 07:39:15;;;;;;;2.30;0.90;;;;;;;14.66;nan;100380.06;4972879;28;20413;-85
2022/12/31 07:41:53;;;;;;;1.40;0.70;;;;;;;14.56;nan;100380.31;4960025;28;20057;-85
2022/12/31 07:44:53;;;;;;;1.40;0.73;;;;;;;14.56;nan;100379.47;4973925;28;20519;-85
2022/12/31 07:47:21;;;;;;;0.77;0.60;;;;;;;14.51;nan;100384.47;4957902;28;20031;-85
2022/12/31 07:49:47;;;;;;;1.20;0.80;;;;;;;14.44;nan;100393.19;4972823;28;20413;-85
2022/12/31 07:52:13;;;;;;;1.95;0.93;;;;;;;14.43;nan;100399.50;4971526;28;20038;-86
2022/12/31 07:54:38;;;;;;;1.60;0.60;;;;;;;14.42;nan;100411.19;4970534;28;20513;-86
2022/12/31 07:57:04;;;;;;;1.42;0.60;;;;;;;14.42;nan;100405.84;4973090;28;20035;-86
2022/12/31 07:59:54;;;;;;;1.55;0.60;;;;;;;14.43;nan;100402.19;4971625;28;20520;-86
2022/12/31 08:02:34;;;;;;;1.90;0.70;;;;;;;14.46;nan;100406.31;4971229;28;20045;-86
2022/12/31 08:05:12;;;;;;;2.75;0.70;;;;;;;14.43;nan;100406.69;4971762;28;20034;-86
2022/12/31 08:07:57;;;;;;;1.60;0.60;;;;;;;14.47;nan;100410.63;4968718;28;20039;-86
2022/12/31 08:10:30;;;;;;;3.28;0.80;;;;;;;14.55;nan;100417.75;4962264;28;20145;-86
2022/12/31 08:13:07;;;;;;;1.33;0.80;;;;;;;14.57;nan;100429.03;4971551;28;20500;-86
2022/12/31 08:15:33;;;;;;;1.80;0.68;;;;;;;14.54;nan;100435.56;4961582;28;20658;-85
2022/12/31 08:17:59;;;;;;;1.02;0.60;;;;;;;14.71;nan;100433.56;4966662;28;20434;-85
2022/12/31 08:20:25;;;;;;;0.90;0.60;;;;;;;14.82;nan;100429.63;4969434;28;20508;-85
2022/12/31 08:22:53;;;;;;;1.10;0.80;;;;;;;14.80;nan;100426.31;4972737;28;20038;-86
2022/12/31 08:25:36;;;;;;;1.67;0.73;;;;;;;14.73;nan;100423.56;4970035;28;20118;-86
2022/12/31 08:28:34;;;;;;;;;;;;;;;14.73;nan;100439.53;4972298;28;20049;-86
2022/12/31 08:31:19;;;;;;;;;;;;;;;14.73;nan;100438.69;4965416;28;19966;-86
2022/12/31 08:34:09;;;;;;;1.10;0.70;;;;;;;14.75;nan;100426.03;4969985;28;19926;-85
2022/12/31 08:36:51;;;;;;;1.85;0.90;;;;;;;14.74;nan;100443.03;4959843;28;20055;-86
2022/12/31 08:39:31;;;;;;;1.30;0.73;;;;;;;14.80;nan;100450.25;4972588;28;20046;-86
2022/12/31 08:41:59;;;;;;;1.23;0.70;;;;;;;14.81;nan;100449.28;4971251;28;20508;-86
2022/12/31 08:44:33;;;;;;;1.73;0.90;;;;;;;14.87;nan;100448.53;4970417;28;20042;-86
2022/12/31 08:47:01;;;;;;;1.63;0.80;;;;;;;14.91;nan;100447.16;4967855;28;20131;-85
2022/12/31 08:49:30;;;;;;;0.95;0.70;;;;;;;14.96;nan;100441.28;4981054;28;20051;-84
2022/12/31 08:51:56;;;;;;;1.70;0.80;;;;;;;15.02;nan;100454.72;4975017;28;20046;-85
2022/12/31 08:54:22;;;;;;;1.25;0.60;;;;;;;15.03;nan;100451.03;4975356;28;21199;-84
2022/12/31 08:57:13;;;;;;;1.88;0.73;;;;;;;15.05;nan;100454.34;4970532;28;20068;-85
2022/12/31 08:59:47;;;;;;;2.08;0.80;;;;;;;15.04;nan;100452.69;4980324;28;20045;-84
2022/12/31 09:02:22;;;;;;;2.08;0.80;;;;;;;15.07;nan;100456.84;4976757;28;20046;-85
2022/12/31 09:05:25;;;;;;;1.25;0.77;;;;;;;15.13;nan;100445.44;4994332;28;20045;-84
2022/12/31 09:07:59;;;;;;;1.25;0.73;;;;;;;15.14;nan;100444.44;4977269;28;20046;-85
2022/12/31 09:10:31;;;;;;;1.70;0.98;;;;;;;15.19;nan;100466.03;4978277;28;20063;-85
2022/12/31 09:13:13;;;;;;;3.70;1.00;;;;;;;15.20;nan;100457.00;4978931;28;20043;-86
2022/12/31 09:15:43;;;;;;;1.80;1.00;;;;;;;15.20;nan;100454.34;4976431;28;20039;-85
2022/12/31 09:18:10;;;;;;;1.50;0.90;;;;;;;15.25;nan;100454.63;4987098;28;20035;-85
2022/12/31 09:20:36;;;;;;;1.50;0.85;;;;;;;15.37;nan;100451.50;4977015;28;20409;-84
2022/12/31 09:23:02;;;;;;;1.40;0.73;;;;;;;15.47;nan;100462.72;4990438;28;20507;-84
2022/12/31 09:25:28;;;;;;;1.10;0.80;;;;;;;15.55;nan;100453.78;4975071;28;20420;-84
2022/12/31 09:28:04;;;;;;;;;;;;;;;15.50;nan;100457.81;4973179;28;20046;-86
2022/12/31 09:30:48;;;;;;;2.13;0.93;;;;;;;15.48;nan;100467.03;4969966;28;19918;-85
2022/12/31 09:33:24;;;;;;;1.50;0.80;;;;;;;15.65;nan;100471.13;4969932;28;20515;-86
2022/12/31 09:35:57;;;;;;;1.50;0.80;;;;;;;15.79;nan;100474.00;4969804;28;20424;-85
2022/12/31 09:39:03;;;;;;;1.50;0.80;;;;;;;15.79;nan;100477.47;4966073;28;20916;-85
2022/12/31 09:41:37;;;;;;;1.48;0.80;;;;;;;15.73;nan;100478.25;4963576;28;20105;-85
2022/12/31 09:44:25;;;;;;;4.40;1.10;;;;;;;15.75;nan;100476.19;4969731;28;20080;-85
2022/12/31 09:47:36;;;;;;;1.60;0.80;;;;;;;15.76;nan;100469.84;4965684;28;20715;-85
2022/12/31 09:50:40;;;;;;;1.10;0.80;;;;;;;15.77;nan;100476.84;4978354;28;20035;-85
2022/12/31 09:53:15;;;;;;;2.53;0.77;;;;;;;15.82;nan;100473.59;4957047;28;20038;-85
2022/12/31 09:55:51;;;;;;;2.45;1.08;;;;;;;15.82;nan;100468.28;4969870;28;20043;-85
2022/12/31 09:58:29;;;;;;;1.85;0.70;;;;;;;15.79;nan;100476.66;4971557;28;20031;-85
2022/12/31 10:01:18;;;;;;;1.58;0.73;;;;;;;15.80;nan;100473.81;4968418;28;20047;-85
2022/12/31 10:04:17;;;;;;;1.67;1.00;;;;;;;15.78;nan;100481.16;4965279;28;20050;-85
2022/12/31 10:06:43;;;;;;;1.38;0.80;;;;;;;15.78;nan;100481.16;4968455;28;20039;-86
2022/12/31 10:09:18;;;;;;;2.40;0.80;;;;;;;15.81;nan;100475.47;4968853;28;20046;-86
2022/12/31 10:11:51;;;;;;;1.55;0.70;;;;;;;15.85;nan;100467.88;4969935;28;20078;-86
2022/12/31 10:14:28;;;;;;;1.42;0.80;;;;;;;15.91;nan;100472.47;4966009;28;20509;-86
2022/12/31 10:17:02;;;;;;;2.22;0.90;;;;;;;15.91;nan;100467.16;4972588;28;20097;-86
2022/12/31 10:20:01;;;;;;;1.92;0.93;;;;;;;15.92;nan;100461.66;4977639;28;20078;-86
2022/12/31 10:22:47;;;;;;;2.17;0.98;;;;;;;15.92;nan;100466.97;4981793;28;20114;-86
2022/12/31 10:25:42;;;;;;;2.67;0.80;;;;;;;16.02;nan;100461.34;4988434;28;20541;-85
2022/12/31 10:28:28;;;;;;;1.20;0.80;;;;;;;16.21;nan;100467.88;4972078;28;20447;-84
2022/12/31 10:31:19;;;;;;;1.85;1.08;;;;;;;16.44;nan;100469.53;4975646;28;20427;-85
2022/12/31 10:34:21;;;;;;;2.28;0.90;;;;;;;16.55;nan;100477.84;4963319;28;20495;-85
2022/12/31 10:36:56;;;;;;;2.17;0.90;;;;;;;16.74;nan;100476.38;4968461;28;20423;-86
2022/12/31 10:39:49;;;;;;;1.40;0.77;;;;;;;16.87;nan;100470.31;4968047;28;20856;-86
2022/12/31 10:42:52;;;;;;;1.40;0.70;;;;;;;16.99;nan;100467.94;4965418;28;20502;-86
2022/12/31 10:45:23;;;;;;;1.90;0.90;;;;;;;17.05;nan;100461.00;4977610;28;20933;-86
2022/12/31 10:48:44;;;;;;;1.30;0.80;;;;;;;17.14;nan;100466.00;4968757;28;20441;-87
2022/12/31 10:51:22;;;;;;;1.23;0.70;;;;;;;17.29;nan;100467.72;4966106;28;20455;-87
2022/12/31 10:54:03;;;;;;;1.73;0.80;;;;;;;17.32;nan;100452.09;4972432;28;20416;-87
2022/12/31 10:56:59;;;;;;;1.40;0.82;;;;;;;17.39;nan;100460.16;4981495;28;20408;-85
2022/12/31 10:59:43;;;;;;;2.67;0.90;;;;;;;17.38;nan;100459.34;5000187;28;20270;-85
2022/12/31 11:02:29;;;;;;;2.05;0.98;;;;;;;17.37;nan;100454.19;4987372;28;20042;-85
2022/12/31 11:05:23;;;;;;;1.48;0.90;;;;;;;17.44;nan;100452.38;4988726;28;20125;-86
2022/12/31 11:08:08;;;;;;;3.90;1.02;;;;;;;17.45;nan;100443.34;4984327;28;20038;-86
2022/12/31 11:11:00;;;;;;;1.35;0.80;;;;;;;17.61;nan;100453.69;4984283;28;20038;-85
2022/12/31 11:13:35;;;;;;;2.05;1.08;;;;;;;17.65;nan;100463.97;4986122;28;20042;-86
2022/12/31 11:16:15;;;;;;;1.48;0.88;;;;;;;17.69;nan;100462.56;4987694;28;20038;-84
2022/12/31 11:19:05;;;;;;;2.28;0.90;;;;;;;17.81;nan;100463.66;4973169;28;20497;-85
2022/12/31 11:21:45;;;;;;;2.58;0.88;;;;;;;17.88;nan;100469.88;4986496;28;20599;-85
2022/12/31 11:24:32;;;;;;;1.20;0.80;;;;;;;18.01;nan;100463.72;4966647;28;20097;-85
2022/12/31 11:27:27;;;;;;;1.27;0.80;;;;;;;18.09;nan;100465.38;4968571;28;20034;-85
2022/12/31 11:30:05;;;;;;;1.73;0.90;;;;;;;18.21;nan;100463.75;4969376;28;20093;-84
2022/12/31 11:32:40;;;;;;;1.80;1.00;;;;;;;18.29;nan;100460.06;4974630;28;20047;-85
2022/12/31 11:35:23;;;;;;;2.17;0.80;;;;;;;18.36;nan;100464.41;4973565;28;20042;-85
2022/12/31 11:37:53;;;;;;;1.70;1.00;;;;;;;18.40;nan;100454.94;4971636;28;20065;-85
2022/12/31 11:40:37;;;;;;;1.58;0.82;;;;;;;18.51;nan;100455.34;4960233;28;20049;-85
2022/12/31 11:43:08;;;;;;;2.03;0.90;;;;;;;18.46;nan;100446.06;4970377;28;20073;-85
2022/12/31 11:46:01;;;;;;;;;;;;;;;18.40;nan;100448.72;4964723;28;20557;-85
2022/12/31 11:48:40;;;;;;;2.30;0.93;;;;;;;18.39;nan;100442.56;4968374;28;19926;-85
2022/12/31 11:51:15;;;;;;;1.55;0.90;;;;;;;18.36;nan;100426.91;4966968;28;20055;-85
2022/12/31 11:54:15;;;;;;;2.58;0.95;;;;;;;18.39;nan;100426.50;4970664;28;20038;-85
2022/12/31 11:56:49;;;;;;;2.63;1.05;;;;;;;18.59;nan;100421.16;4967594;28;20789;-85
2022/12/31 11:59:15;;;;;;;1.63;0.90;;;;;;;18.63;nan;100411.66;4967833;28;20499;-84
2022/12/31 12:02:14;;;;;;;0.98;0.77;;;;;;;18.48;nan;100413.75;4968351;28;20384;-85
2022/12/31 12:04:40;;;;;;;1.73;0.80;;;;;;;18.41;nan;100397.66;4983455;28;20042;-85
2022/12/31 12:07:13;;;;;;;1.92;0.82;;;;;;;18.39;nan;100405.09;4971638;28;20043;-85
2022/12/31 12:09:39;;;;;;;2.40;0.90;;;;;;;18.34;nan;100396.84;4972989;28;20118;-85
2022/12/31 12:12:05;;;;;;;1.63;0.80;;;;;;;18.35;nan;100392.31;4971677;28;20447;-84
2022/12/31 12:14:41;;;;;;;1.92;0.90;;;;;;;18.33;nan;100410.44;4969328;28;20039;-85
2022/12/31 12:17:14;;;;;;;1.23;0.77;;;;;;;18.30;nan;100416.19;4966206;28;20047;-85
2022/12/31 12:19:45;;;;;;;0.90;0.70;;;;;;;18.31;nan;100416.00;4967903;28;20488;-85
2022/12/31 12:22:19;;;;;;;2.20;1.10;;;;;;;18.36;nan;100410.03;4973742;28;20185;-85
2022/12/31 12:25:03;;;;;;;2.10;1.00;;;;;;;18.31;nan;100418.69;4974858;28;20121;-85
2022/12/31 12:27:32;;;;;;;1.45;0.98;;;;;;;18.28;nan;100412.91;4974170;28;20031;-85
2022/12/31 12:30:07;;;;;;;3.33;0.80;;;;;;;18.26;nan;100413.13;4973306;28;20038;-85
2022/12/31 12:32:34;;;;;;;1.50;0.90;;;;;;;18.24;nan;100415.19;4966995;28;20412;-85